Time;durP1;ratioP1;P1;durP2;ratioP2;P2;SDS_P1;SDS_P2;PMS_P1;PMS_P2;Temp;Humidity;BMP_temperature;BMP_pressure;BME280_temperature;BME280_humidity;BME280_pressure;Samples;Min_cycle;Max_cycle;Signal;HPM_P1;HPM_P2
2022/06/01 03:41:06;;;;;;;;;;;;;;;6.39;92.41;99441.19;6270659;22;19977;-88
2022/06/01 03:45:55;;;;;;;;;;;;;;;6.42;92.57;99435.81;6277120;22;19919;-89
2022/06/01 03:46:37;;;;;;;;;;;;;;;6.40;92.45;99432.34;6277342;22;20383;-90
2022/06/01 03:52:16;;;;;;;;;;;;;;;6.43;92.75;99441.03;6209369;22;19911;-88
2022/06/01 03:54:48;;;;;;;;;;;;;;;6.40;92.48;99442.88;6247790;22;19926;-88
2022/06/01 03:57:17;;;;;;;;;;;;;;;6.45;92.75;99441.00;6277023;22;19915;-88
2022/06/01 03:59:47;;;;;;;;;;;;;;;6.36;92.58;99442.13;6276736;22;19915;-88
2022/06/01 04:02:27;;;;;;;;;;;;;;;6.44;92.84;99445.38;6275233;22;19915;-87
2022/06/01 04:08:25;;;;;;;;;;;;;;;;;;;;;
2022/06/01 04:11:03;;;;;;;;;;;;;;;6.40;93.14;99442.88;6275635;22;20004;-87
2022/06/01 04:13:40;;;;;;;;;;;;;;;;;;;;;
2022/06/01 04:16:18;;;;;;;;;;;;;;;6.48;93.62;99446.16;6276838;22;19986;-87
2022/06/01 04:18:47;;;;;;;;;;;;;;;6.41;93.65;99447.25;6276930;22;19911;-88
2022/06/01 04:21:23;;;;;;;;;;;;;;;6.46;94.05;99442.69;6249383;22;19986;-88
2022/06/01 04:24:02;;;;;;;;;;;;;;;6.39;93.86;99449.06;6247691;22;19934;-88
2022/06/01 04:26:29;;;;;;;;;;;;;;;6.48;94.29;99446.16;6276861;22;19922;-88
2022/06/01 04:29:18;;;;;;;;;;;;;;;6.43;94.17;99442.78;6249262;22;20239;-88
2022/06/01 04:31:46;;;;;;;;;;;;;;;6.48;94.56;99448.78;6249471;22;19911;-87
2022/06/01 04:34:18;;;;;;;;;;;;;;;6.40;94.10;99445.50;6276221;22;19926;-88
2022/06/01 04:36:46;;;;;;;;;;;;;;;6.40;94.38;99441.13;6276339;22;20394;-88
2022/06/01 04:39:24;;;;;;;;;;;;;;;;;;;;;
2022/06/01 04:41:55;;;;;;;;;;;;;;;6.39;94.09;99454.34;6276348;22;20303;-87
2022/06/01 04:51:26;;;;;;;;;;;;;;;;;;;;;
2022/06/01 08:14:35;;;;;;;;;;;;;;;6.34;93.30;99520.25;5939430;24;19915;-86
2022/06/01 08:17:13;;;;;;;;;;;;;;;6.44;93.36;99512.94;5949339;24;19926;-88
2022/06/01 08:22:57;;;;;;;;;;;;;;;;;;;;;
2022/06/01 08:25:55;;;;;;;;;;;;;;;;;;;;;
2022/06/01 08:31:16;;;;;;;;;;;;;;;6.49;93.40;99525.06;5980238;23;19922;-85
2022/06/01 08:33:50;;;;;;;;;;;;;;;6.43;93.25;99533.16;5952656;24;19951;-88
2022/06/01 08:40:04;;;;;;;;;;;;;;;6.46;93.09;99530.44;6027843;23;19914;-87
2022/06/01 08:42:59;;;;;;;;;;;;;;;;;;;;;
2022/06/01 08:45:26;;;;;;;;;;;;;;;6.37;92.96;99528.06;6254153;22;20006;-86
2022/06/01 08:47:57;;;;;;;;;;;;;;;6.44;93.03;99531.38;6278973;22;20203;-89
2022/06/01 08:50:34;;;;;;;;;;;;;;;6.52;93.25;99530.22;6279630;22;19977;-85
2022/06/01 08:53:43;;;;;;;;;;;;;;;6.47;93.02;99529.50;6306843;22;19911;-88
2022/06/01 08:56:11;;;;;;;;;;;;;;;6.55;93.38;99537.16;6302172;22;20369;-87
2022/06/01 08:58:42;;;;;;;;;;;;;;;6.41;93.34;99536.72;6305856;22;19950;-91
2022/06/01 09:01:14;;;;;;;;;;;;;;;6.52;93.43;99539.91;6279520;22;19989;-86
2022/06/01 09:04:00;;;;;;;;;;;;;;;6.54;93.20;99535.44;6278791;22;19910;-87
2022/06/01 09:06:36;;;;;;;;;;;;;;;6.47;93.28;99540.03;6304333;22;19919;-89
2022/06/01 09:09:06;;;;;;;;;;;;;;;6.48;93.15;99535.66;6307401;22;20032;-85
2022/06/01 09:11:51;;;;;;;;;;;;;;;6.34;93.15;99542.16;6277789;22;19939;-88
2022/06/01 09:14:35;;;;;;;;;;;;;;;6.40;93.38;99540.25;6279631;22;19915;-86
2022/06/01 09:17:22;;;;;;;;;;;;;;;6.47;93.06;99545.28;6306909;22;19911;-87
2022/06/01 09:22:42;;;;;;;;;;;;;;;6.51;92.99;99546.06;6305959;22;20287;-88
2022/06/01 09:25:08;;;;;;;;;;;;;;;6.58;93.38;99537.06;6277450;22;19911;-86
2022/06/01 09:27:38;;;;;;;;;;;;;;;6.65;93.62;99545.66;6306947;22;19980;-86
2022/06/01 09:30:39;;;;;;;;;;;;;;;6.63;93.46;99534.31;6279431;22;19915;-87
2022/06/01 09:33:12;;;;;;;;;;;;;;;6.60;93.60;99540.53;6306164;22;19911;-87
2022/06/01 09:36:04;;;;;;;;;;;;;;;6.57;93.31;99542.41;6279584;22;19968;-88
2022/06/01 09:38:39;;;;;;;;;;;;;;;6.57;93.37;99540.59;6270442;22;19958;-87
2022/06/01 09:41:46;;;;;;;;;;;;;;;6.65;93.22;99546.53;6303411;22;19911;-86
2022/06/01 09:44:18;;;;;;;;;;;;;;;6.67;93.43;99541.19;6269891;22;19921;-87
2022/06/01 09:46:56;;;;;;;;;;;;;;;6.58;93.22;99542.34;6274207;22;19933;-87
2022/06/01 09:49:43;;;;;;;;;;;;;;;;;;;;;
2022/06/01 09:52:13;;;;;;;;;;;;;;;6.71;93.43;99532.28;6274902;22;20002;-87
2022/06/01 09:54:48;;;;;;;;;;;;;;;6.64;93.61;99531.63;6273381;22;19979;-87
2022/06/01 09:57:27;;;;;;;;;;;;;;;6.72;93.77;99528.75;6247283;22;19917;-85
2022/06/01 10:08:42;;;;;;;;;;;;;;;6.72;93.70;99524.34;6275649;22;19938;-88
2022/06/01 10:11:46;;;;;;;;;;;;;;;6.66;93.45;99524.53;6274466;22;19943;-88
2022/06/01 10:14:14;;;;;;;;;;;;;;;6.84;93.84;99520.47;6248251;22;19911;-88
2022/06/01 10:16:51;;;;;;;;;;;;;;;7.34;93.79;99517.09;6275520;22;20322;-92
2022/06/01 10:19:28;;;;;;;;;;;;;;;12.33;81.42;99498.78;6277243;22;19988;-87
2022/06/01 10:22:20;;;;;;;;;;;;;;;13.97;73.86;99501.72;6280478;22;19922;-91
2022/06/01 10:24:51;;;;;;;;;;;;;;;11.52;86.49;99501.25;6298704;22;19972;-89
2022/06/01 10:27:20;;;;;;;;;;;;;;;10.18;90.94;99498.81;6306411;22;19914;-90
2022/06/01 10:29:50;;;;;;;;;;;;;;;9.43;91.11;99510.09;6306949;22;19964;-89
2022/06/01 10:32:47;;;;;;;;;;;;;;;9.04;91.36;99506.38;6279429;22;19907;-93
2022/06/01 10:35:35;;;;;;;;;;;;;;;8.87;91.32;99506.19;6305892;22;19999;-92
2022/06/01 10:38:03;;;;;;;;;;;;;;;9.35;95.04;99501.59;6284606;22;19922;-91
2022/06/01 10:40:37;;;;;;;;;;;;;;;9.52;97.38;99506.19;6305018;22;19907;-86
2022/06/01 10:43:18;;;;;;;;;;;;;;;8.94;95.81;99499.75;6306419;22;19989;-91
2022/06/01 10:46:03;;;;;;;;;;;;;;;8.79;94.40;99500.38;6304562;22;19921;-89
2022/06/01 10:48:30;;;;;;;;;;;;;;;8.63;92.84;99503.66;6303673;22;19951;-86
2022/06/01 10:51:16;;;;;;;;;;;;;;;8.64;92.21;99505.34;6306467;22;19962;-87
2022/06/01 10:53:47;;;;;;;;;;;;;;;8.63;91.49;99502.75;6306483;22;19918;-89
2022/06/01 10:56:14;;;;;;;;;;;;;;;8.69;91.19;99499.88;6304923;22;19915;-89
2022/06/01 10:58:40;;;;;;;;;;;;;;;9.34;94.62;99491.97;6304957;22;19915;-92
2022/06/01 11:01:24;;;;;;;;;;;;;;;9.56;97.36;99495.41;6306805;22;20234;-88
2022/06/01 11:04:04;;;;;;;;;;;;;;;9.03;96.26;99495.88;6308332;22;19977;-89
2022/06/01 11:06:33;;;;;;;;;;;;;;;8.85;94.42;99497.50;6305360;22;19918;-88
2022/06/01 11:09:38;;;;;;;;;;;;;;;;;;;;;
2022/06/01 11:12:17;;;;;;;;;;;;;;;8.83;92.10;99489.63;6287525;22;20006;-90
2022/06/01 11:15:05;;;;;;;;;;;;;;;9.08;93.26;99486.00;6307475;22;20377;-92
2022/06/01 11:17:39;;;;;;;;;;;;;;;9.60;97.25;99489.03;6309348;22;19911;-94
2022/06/01 11:20:17;;;;;;;;;;;;;;;9.31;97.29;99502.66;6367477;22;19979;-92
2022/06/01 11:22:45;;;;;;;;;;;;;;;9.17;96.57;99503.25;6369806;22;19920;-90
2022/06/01 11:25:11;;;;;;;;;;;;;;;9.56;98.65;99507.78;6369604;22;19914;-90
2022/06/01 11:28:02;;;;;;;;;;;;;;;9.64;99.88;99495.94;6370106;22;20207;-90
2022/06/01 11:30:34;;;;;;;;;;;;;;;8.99;96.65;99497.78;6322100;22;19922;-89
2022/06/01 11:33:03;;;;;;;;;;;;;;;9.50;98.43;99502.75;6369172;22;19989;-89
2022/06/01 11:35:32;;;;;;;;;;;;;;;9.78;100.00;99491.81;6342674;22;19977;-89
2022/06/01 11:38:22;;;;;;;;;;;;;;;9.25;98.23;99509.06;6370179;22;19917;-91
2022/06/01 11:40:50;;;;;;;;;;;;;;;9.07;96.01;99500.13;6369062;22;19910;-88
2022/06/01 11:43:23;;;;;;;;;;;;;;;8.94;94.26;99502.41;6370628;22;19910;-92
2022/06/01 11:45:56;;;;;;;;;;;;;;;9.54;97.25;99499.91;6369931;22;20403;-88
2022/06/01 11:48:44;;;;;;;;;;;;;;;9.78;99.43;99505.03;6342345;22;19910;-89
2022/06/01 11:51:16;;;;;;;;;;;;;;;9.18;97.62;99497.88;6369503;22;20267;-91
2022/06/01 11:53:41;;;;;;;;;;;;;;;9.34;97.50;99503.38;6343171;22;19917;-91
2022/06/01 11:56:25;;;;;;;;;;;;;;;9.74;99.54;99495.53;6368356;22;19914;-88
2022/06/01 11:59:05;;;;;;;;;;;;;;;9.51;99.22;99488.56;6342504;22;19925;-88
2022/06/01 12:01:51;;;;;;;;;;;;;;;9.21;97.10;99491.63;6341593;22;19918;-90
2022/06/01 12:04:16;;;;;;;;;;;;;;;9.71;99.20;99490.38;6341194;22;19912;-90
2022/06/01 12:06:53;;;;;;;;;;;;;;;9.80;100.00;99487.31;6369121;22;20241;-91
2022/06/01 12:09:42;;;;;;;;;;;;;;;9.26;97.79;99484.34;6343216;22;19984;-92
2022/06/01 12:12:22;;;;;;;;;;;;;;;9.05;95.07;99473.75;6309473;22;19956;-93
2022/06/01 12:14:58;;;;;;;;;;;;;;;9.24;94.99;99487.06;6369703;22;19914;-88
2022/06/01 12:17:25;;;;;;;;;;;;;;;9.75;97.69;99476.94;6341560;22;19910;-92
2022/06/01 12:19:53;;;;;;;;;;;;;;;9.88;99.38;99484.34;6369445;22;20318;-92
2022/06/01 12:28:31;;;;;;;;;;;;;;;9.02;93.36;99476.53;6370305;22;20013;-91
2022/06/01 12:31:08;;;;;;;;;;;;;;;8.97;92.59;99470.56;6341357;22;19949;-91
2022/06/01 12:33:33;;;;;;;;;;;;;;;9.64;95.96;99469.47;6370919;22;19946;-90
2022/06/01 12:35:59;;;;;;;;;;;;;;;9.77;98.12;99463.66;6370836;22;19997;-91
2022/06/01 12:38:33;;;;;;;;;;;;;;;9.33;96.00;99469.09;6370007;22;20238;-91
2022/06/01 12:41:12;;;;;;;;;;;;;;;9.12;93.71;99466.41;6368665;22;19910;-90
2022/06/01 12:43:38;;;;;;;;;;;;;;;9.02;92.48;99465.09;6369923;22;19910;-91
2022/06/01 12:46:17;;;;;;;;;;;;;;;9.09;92.27;99462.16;6370339;22;19937;-91
2022/06/01 12:48:42;;;;;;;;;;;;;;;9.59;95.75;99460.88;6342486;22;19959;-90
2022/06/01 12:51:09;;;;;;;;;;;;;;;9.85;98.23;99461.50;6369221;22;19918;-90
2022/06/01 12:53:40;;;;;;;;;;;;;;;9.34;95.61;99452.31;6369928;22;19914;-90
2022/06/01 12:56:12;;;;;;;;;;;;;;;9.15;93.77;99433.72;6368526;22;19914;-89
2022/06/01 12:58:40;;;;;;;;;;;;;;;9.05;92.70;99449.13;6342543;22;19911;-90
2022/06/01 13:01:06;;;;;;;;;;;;;;;9.05;91.68;99452.59;6369716;22;19964;-89
2022/06/01 13:03:33;;;;;;;;;;;;;;;9.16;91.86;99456.56;6341377;22;19915;-89
2022/06/01 13:06:00;;;;;;;;;;;;;;;9.74;95.74;99458.50;6343124;22;20230;-94
2022/06/01 13:08:27;;;;;;;;;;;;;;;9.87;97.80;99454.34;6370013;22;19911;-89
2022/06/01 13:10:52;;;;;;;;;;;;;;;9.23;96.05;99442.19;6341045;22;19918;-95
2022/06/01 13:13:20;;;;;;;;;;;;;;;9.08;94.10;99443.69;6342522;22;19910;-93
2022/06/01 13:15:56;;;;;;;;;;;;;;;8.96;92.55;99449.50;6369840;22;20585;-94
2022/06/01 13:18:26;;;;;;;;;;;;;;;8.97;91.78;99440.66;6343058;22;19966;-89
2022/06/01 13:20:55;;;;;;;;;;;;;;;9.64;95.25;99452.75;6370127;22;19918;-87
2022/06/01 13:23:29;;;;;;;;;;;;;;;9.92;97.89;99441.75;6369550;22;19946;-88
2022/06/01 13:25:56;;;;;;;;;;;;;;;9.46;96.44;99449.09;6339529;22;19928;-88
2022/06/01 13:28:22;;;;;;;;;;;;;;;9.17;94.36;99445.09;6340253;22;19921;-88
2022/06/01 13:30:48;;;;;;;;;;;;;;;9.01;92.95;99442.22;6367627;22;19914;-89
2022/06/01 13:33:36;;;;;;;;;;;;;;;8.96;91.93;99438.94;6368676;22;20329;-91
2022/06/01 13:36:07;;;;;;;;;;;;;;;9.10;91.62;99436.56;6353258;22;19917;-88
2022/06/01 13:38:41;;;;;;;;;;;;;;;9.69;95.29;99426.94;6342221;22;19933;-90
2022/06/01 13:41:18;;;;;;;;;;;;;;;9.86;97.70;99427.97;6367765;22;19996;-89
2022/06/01 13:43:47;;;;;;;;;;;;;;;9.19;95.78;99432.66;6369411;22;19955;-89
2022/06/01 13:46:14;;;;;;;;;;;;;;;9.20;93.88;99429.09;6367736;22;19914;-89
2022/06/01 13:48:52;;;;;;;;;;;;;;;9.09;92.15;99422.50;6368767;22;20262;-89
2022/06/01 13:51:35;;;;;;;;;;;;;;;9.04;91.41;99424.44;6368335;22;19914;-88
2022/06/01 13:54:01;;;;;;;;;;;;;;;9.15;91.12;99434.56;6369270;22;20287;-89
2022/06/01 13:56:43;;;;;;;;;;;;;;;9.69;94.67;99419.00;6340413;22;19914;-88
2022/06/01 13:59:31;;;;;;;;;;;;;;;10.01;97.94;99429.91;6368694;22;19916;-88
2022/06/01 14:02:03;;;;;;;;;;;;;;;9.25;95.80;99419.19;6352324;22;19975;-89
2022/06/01 14:04:48;;;;;;;;;;;;;;;9.09;94.05;99413.69;6340710;22;19959;-88
2022/06/01 14:07:15;;;;;;;;;;;;;;;9.04;92.22;99427.09;6369134;22;19910;-88
2022/06/01 14:09:45;;;;;;;;;;;;;;;9.12;91.16;99424.13;6367128;22;19914;-90
2022/06/01 14:12:11;;;;;;;;;;;;;;;9.25;91.52;99419.19;6367661;22;20328;-87
2022/06/01 14:14:38;;;;;;;;;;;;;;;9.74;95.08;99421.44;6369290;22;19910;-89
2022/06/01 14:17:07;;;;;;;;;;;;;;;10.06;98.27;99422.59;6369086;22;19929;-89
2022/06/01 14:19:32;;;;;;;;;;;;;;;9.46;96.52;99417.38;6369032;22;19914;-89
2022/06/01 14:21:57;;;;;;;;;;;;;;;9.87;98.36;99419.09;6369103;22;20306;-89
2022/06/01 14:24:24;;;;;;;;;;;;;;;10.19;100.00;99428.19;6341430;22;19943;-88
2022/06/01 14:29:33;;;;;;;;;;;;;;;10.02;99.77;99430.75;6369157;22;19916;-88
2022/06/01 14:31:59;;;;;;;;;;;;;;;10.17;100.00;99425.59;6369076;22;19945;-89
2022/06/01 14:34:25;;;;;;;;;;;;;;;9.68;99.96;99421.72;6368676;22;19914;-88
2022/06/01 14:36:50;;;;;;;;;;;;;;;9.99;100.00;99427.34;6370505;22;19967;-88
2022/06/01 14:39:19;;;;;;;;;;;;;;;10.17;100.00;99425.59;6371332;22;19980;-88
2022/06/01 14:41:45;;;;;;;;;;;;;;;9.86;100.00;99427.97;6369723;22;19910;-88
2022/06/01 14:44:12;;;;;;;;;;;;;;;9.95;100.00;99438.13;6371148;22;19926;-88
2022/06/01 14:46:37;;;;;;;;;;;;;;;10.19;100.00;99433.47;6371160;22;19913;-88
2022/06/01 14:49:03;;;;;;;;;;;;;;;10.05;100.00;99425.31;6371131;22;19941;-88
2022/06/01 14:51:30;;;;;;;;;;;;;;;9.90;100.00;99429.56;6371177;22;19910;-89
2022/06/01 14:53:57;;;;;;;;;;;;;;;10.24;100.00;99431.47;6371034;22;19970;-88
2022/06/01 14:56:22;;;;;;;;;;;;;;;10.09;100.00;99432.22;6369600;22;19917;-88
2022/06/01 14:58:48;;;;;;;;;;;;;;;9.87;99.89;99430.53;6371140;22;20318;-88
2022/06/01 15:01:18;;;;;;;;;;;;;;;10.25;100.00;99435.84;6370188;22;19914;-88
2022/06/01 15:03:45;;;;;;;;;;;;;;;10.34;100.00;99432.81;6370521;22;19910;-90
2022/06/01 15:06:11;;;;;;;;;;;;;;;9.85;99.66;99423.63;6370455;22;19998;-89
2022/06/01 15:08:37;;;;;;;;;;;;;;;10.28;100.00;99425.09;6369241;22;20291;-88
2022/06/01 15:11:02;;;;;;;;;;;;;;;10.56;100.00;99423.81;6368771;22;19918;-88
2022/06/01 15:13:29;;;;;;;;;;;;;;;9.85;99.78;99424.47;6369132;22;19992;-90
2022/06/01 15:15:55;;;;;;;;;;;;;;;10.21;100.00;99426.34;6369995;22;19915;-87
2022/06/01 15:18:20;;;;;;;;;;;;;;;10.46;100.00;99425.19;6342472;22;19922;-88
2022/06/01 15:20:52;;;;;;;;;;;;;;;9.92;100.00;99425.88;6370709;22;19937;-88
2022/06/01 15:23:18;;;;;;;;;;;;;;;10.15;100.00;99432.78;6370481;22;19910;-89
2022/06/01 15:25:43;;;;;;;;;;;;;;;10.43;100.00;99425.34;6341256;22;19946;-88
2022/06/01 15:28:08;;;;;;;;;;;;;;;10.02;100.00;99430.75;6342671;22;19930;-88
2022/06/01 15:41:30;;;;;;;;;;;;;;;10.33;100.00;99425.78;6368946;22;20217;-87
2022/06/01 15:43:57;;;;;;;;;;;;;;;10.34;100.00;99431.94;6369691;22;19914;-89
2022/06/01 15:49:38;;;;;;;;;;;;;;;10.18;99.62;99431.78;6357524;22;19914;-88
2022/06/01 15:52:06;;;;;;;;;;;;;;;10.53;100.00;99431.94;6370216;22;19914;-87
2022/06/01 15:54:32;;;;;;;;;;;;;;;10.07;99.75;99447.28;6369017;22;20218;-87
2022/06/01 15:56:59;;;;;;;;;;;;;;;10.02;99.39;99442.22;6341993;22;19910;-88
2022/06/01 15:59:33;;;;;;;;;;;;;;;10.47;100.00;99441.03;6341625;22;19911;-87
2022/06/01 16:02:02;;;;;;;;;;;;;;;10.23;100.00;99448.31;6370451;22;19991;-88
2022/06/01 16:04:27;;;;;;;;;;;;;;;9.91;99.19;99450.66;6337937;22;19916;-87
2022/06/01 16:06:52;;;;;;;;;;;;;;;10.46;100.00;99449.88;6368945;22;19977;-88
2022/06/01 16:09:19;;;;;;;;;;;;;;;10.56;100.00;99447.66;6368169;22;19914;-88
2022/06/01 16:11:47;;;;;;;;;;;;;;;9.91;99.74;99444.50;6368168;22;19910;-88
2022/06/01 16:14:15;;;;;;;;;;;;;;;10.32;100.00;99453.22;6370278;22;19906;-88
2022/06/01 16:16:41;;;;;;;;;;;;;;;10.52;100.00;99440.81;6342679;22;19917;-88
2022/06/01 16:19:08;;;;;;;;;;;;;;;10.04;100.00;99450.94;6316616;22;20325;-88
2022/06/01 16:21:34;;;;;;;;;;;;;;;10.15;100.00;99447.81;6341628;22;19991;-88
2022/06/01 16:23:59;;;;;;;;;;;;;;;10.45;100.00;99440.25;6370255;22;19914;-87
2022/06/01 16:26:25;;;;;;;;;;;;;;;10.23;100.00;99445.66;6368627;22;19985;-88
2022/06/01 16:28:50;;;;;;;;;;;;;;;9.84;99.02;99449.19;6341574;22;19914;-87
2022/06/01 16:31:16;;;;;;;;;;;;;;;9.84;98.40;99446.56;6370022;22;19906;-87
2022/06/01 16:33:42;;;;;;;;;;;;;;;10.36;100.00;99461.88;6370588;22;20345;-89
2022/06/01 16:36:09;;;;;;;;;;;;;;;10.32;100.00;99461.16;6369447;22;19914;-88
2022/06/01 16:38:35;;;;;;;;;;;;;;;9.76;99.58;99465.41;6342703;22;19906;-89
2022/06/01 16:41:01;;;;;;;;;;;;;;;9.60;97.59;99470.53;6368704;22;19956;-87
2022/06/01 16:43:27;;;;;;;;;;;;;;;10.05;99.11;99462.38;6369797;22;19910;-88
2022/06/01 16:45:58;;;;;;;;;;;;;;;10.42;100.00;99471.28;6340646;22;19910;-91
2022/06/01 16:48:24;;;;;;;;;;;;;;;9.94;100.00;99469.03;6370174;22;19910;-87
2022/06/01 16:50:49;;;;;;;;;;;;;;;9.76;98.59;99470.69;6341377;22;19915;-89
2022/06/01 16:53:14;;;;;;;;;;;;;;;10.33;100.00;99467.31;6341592;22;19979;-88
2022/06/01 16:55:55;;;;;;;;;;;;;;;10.45;100.00;99472.03;6340553;22;20001;-87
2022/06/01 16:58:20;;;;;;;;;;;;;;;9.82;99.93;99472.22;6369387;22;19975;-88
2022/06/01 17:00:54;;;;;;;;;;;;;;;10.20;100.00;99471.44;6339852;22;20318;-87
2022/06/01 17:03:20;;;;;;;;;;;;;;;10.53;100.00;99479.63;6341887;22;19920;-88
2022/06/01 17:05:45;;;;;;;;;;;;;;;9.78;100.00;99481.22;6341047;22;20301;-89
2022/06/01 17:08:10;;;;;;;;;;;;;;;9.53;98.25;99477.03;6341966;22;19949;-88
2022/06/01 17:10:36;;;;;;;;;;;;;;;9.56;96.40;99476.88;6366579;22;20039;-87
2022/06/01 17:13:02;;;;;;;;;;;;;;;9.48;95.21;99476.38;6368547;22;20241;-88
2022/06/01 17:15:28;;;;;;;;;;;;;;;9.59;95.03;99481.19;6341322;22;20314;-88
2022/06/01 17:17:56;;;;;;;;;;;;;;;10.21;98.40;99479.31;6369701;22;20386;-88
2022/06/01 17:20:36;;;;;;;;;;;;;;;10.32;100.00;99482.34;6340882;22;19924;-88
2022/06/01 17:23:01;;;;;;;;;;;;;;;9.79;98.24;99480.31;6341602;22;19984;-88
2022/06/01 17:25:32;;;;;;;;;;;;;;;9.64;96.31;99484.50;6340318;22;19938;-88
2022/06/01 17:27:58;;;;;;;;;;;;;;;9.51;94.87;99494.75;6369701;22;20001;-88
2022/06/01 17:30:24;;;;;;;;;;;;;;;9.59;94.75;99483.84;6369520;22;19946;-88
2022/06/01 17:32:53;;;;;;;;;;;;;;;10.10;97.90;99489.50;6369456;22;19938;-87
2022/06/01 17:35:26;;;;;;;;;;;;;;;10.32;100.00;99497.31;6369442;22;19917;-90
2022/06/01 17:37:53;;;;;;;;;;;;;;;9.75;98.46;99492.81;6342021;22;19921;-88
2022/06/01 17:40:31;;;;;;;;;;;;;;;9.50;95.97;99493.03;6367887;22;19987;-87
2022/06/01 17:42:57;;;;;;;;;;;;;;;9.44;94.79;99495.94;6341719;22;20226;-87
2022/06/01 17:45:24;;;;;;;;;;;;;;;9.42;93.77;99498.63;6369472;22;19914;-86
2022/06/01 17:47:49;;;;;;;;;;;;;;;9.81;96.02;99502.25;6341793;22;20011;-90
2022/06/01 17:50:17;;;;;;;;;;;;;;;10.28;99.14;99501.06;6368717;22;20410;-90
2022/06/01 17:52:43;;;;;;;;;;;;;;;9.94;98.92;99500.81;6369311;22;19983;-86
2022/06/01 17:55:09;;;;;;;;;;;;;;;9.56;96.67;99498.06;6367743;22;19910;-89
2022/06/01 17:57:37;;;;;;;;;;;;;;;9.54;94.95;99499.03;6369447;22;19914;-89
2022/06/01 18:00:09;;;;;;;;;;;;;;;9.36;93.83;99504.19;6369673;22;20314;-88
2022/06/01 18:02:35;;;;;;;;;;;;;;;9.36;93.17;99495.41;6341475;22;19917;-87
2022/06/01 18:05:00;;;;;;;;;;;;;;;9.74;94.65;99506.97;6369339;22;19991;-87
2022/06/01 18:07:31;;;;;;;;;;;;;;;10.07;98.03;99505.50;6369139;22;20358;-87
2022/06/01 18:10:06;;;;;;;;;;;;;;;10.09;99.69;99506.34;6367839;22;20275;-88
2022/06/01 18:12:33;;;;;;;;;;;;;;;9.55;96.72;99509.53;6368895;22;19963;-91
2022/06/01 18:14:58;;;;;;;;;;;;;;;9.40;95.14;99510.22;6341627;22;19914;-89
2022/06/01 18:17:25;;;;;;;;;;;;;;;9.42;94.06;99514.50;6341072;22;19914;-89
2022/06/01 18:19:50;;;;;;;;;;;;;;;9.29;92.91;99515.09;6341031;22;19981;-87
2022/06/01 18:22:18;;;;;;;;;;;;;;;9.86;95.95;99516.16;6369438;22;19953;-88
2022/06/01 18:24:43;;;;;;;;;;;;;;;10.20;99.01;99519.94;6367916;22;19921;-89
2022/06/01 18:27:09;;;;;;;;;;;;;;;9.79;98.75;99520.00;6341296;22;19911;-91
2022/06/01 18:29:36;;;;;;;;;;;;;;;9.75;98.12;99521.06;6341443;22;19911;-86
2022/06/01 18:32:01;;;;;;;;;;;;;;;10.13;100.00;99519.38;6369037;22;20242;-88
2022/06/01 18:34:30;;;;;;;;;;;;;;;10.09;100.00;99522.22;6341197;22;19941;-87
2022/06/01 18:36:55;;;;;;;;;;;;;;;9.62;98.84;99523.34;6368934;22;19910;-87
2022/06/01 18:39:20;;;;;;;;;;;;;;;9.43;96.44;99531.25;6341236;22;19974;-88
2022/06/01 18:41:46;;;;;;;;;;;;;;;9.35;95.10;99533.31;6367550;22;19915;-89
2022/06/01 18:44:16;;;;;;;;;;;;;;;9.62;95.40;99537.47;6369690;22;19910;-90
2022/06/01 18:46:42;;;;;;;;;;;;;;;10.09;98.52;99543.41;6341279;22;19910;-90
2022/06/01 18:49:08;;;;;;;;;;;;;;;10.40;100.00;99542.03;6369306;22;19915;-91
2022/06/01 18:51:37;;;;;;;;;;;;;;;9.70;97.55;99552.13;6373579;22;19910;-88
2022/06/01 18:54:06;;;;;;;;;;;;;;;10.11;99.75;99555.63;6346608;22;19955;-88
2022/06/01 18:56:36;;;;;;;;;;;;;;;10.32;100.00;99548.56;6367840;22;19917;-92
2022/06/01 18:59:01;;;;;;;;;;;;;;;9.73;99.93;99557.28;6370642;22;19925;-89
2022/06/01 19:01:33;;;;;;;;;;;;;;;9.51;97.77;99558.22;6343629;22;19911;-92
2022/06/01 19:04:08;;;;;;;;;;;;;;;9.38;95.65;99560.53;6373226;22;19994;-90
2022/06/01 19:06:34;;;;;;;;;;;;;;;9.32;94.31;99563.41;6341519;22;19906;-94
2022/06/01 19:09:00;;;;;;;;;;;;;;;9.63;95.25;99562.97;6369633;22;19913;-92
2022/06/01 19:11:26;;;;;;;;;;;;;;;10.03;98.25;99570.13;6340303;22;19934;-93
2022/06/01 19:13:52;;;;;;;;;;;;;;;10.05;100.00;99576.22;6341539;22;20245;-93
2022/06/01 19:16:26;;;;;;;;;;;;;;;9.58;97.84;99574.69;6370574;22;19917;-93
2022/06/01 19:18:52;;;;;;;;;;;;;;;9.32;95.64;99568.72;6341918;22;19918;-92
2022/06/01 19:21:18;;;;;;;;;;;;;;;9.29;94.50;99573.28;6370513;22;19921;-94
2022/06/01 19:23:43;;;;;;;;;;;;;;;9.33;93.46;99574.84;6372134;22;20276;-92
2022/06/01 19:26:09;;;;;;;;;;;;;;;9.69;95.61;99571.59;6342170;22;20344;-94
2022/06/01 19:28:36;;;;;;;;;;;;;;;10.14;99.32;99581.94;6343505;22;19917;-92
2022/06/01 19:31:02;;;;;;;;;;;;;;;9.69;98.65;99579.53;6370817;22;19996;-95
2022/06/01 19:33:27;;;;;;;;;;;;;;;9.36;96.71;99586.16;6343259;22;19953;-92
2022/06/01 19:44:04;;;;;;;;;;;;;;;9.29;92.40;99600.56;6370588;22;19922;-90
2022/06/01 19:46:29;;;;;;;;;;;;;;;9.83;96.30;99608.91;6370957;22;19910;-89
2022/06/01 19:48:55;;;;;;;;;;;;;;;10.10;99.29;99612.16;6342694;22;19918;-88
2022/06/01 19:51:20;;;;;;;;;;;;;;;9.56;97.50;99613.59;6370384;22;19911;-91
2022/06/01 19:56:51;;;;;;;;;;;;;;;9.23;93.46;99628.09;6368857;22;19917;-89
2022/06/01 19:59:19;;;;;;;;;;;;;;;9.23;92.73;99637.81;6370381;22;20241;-89
2022/06/01 20:01:45;;;;;;;;;;;;;;;9.24;91.90;99645.69;6370103;22;19917;-89
2022/06/01 20:04:10;;;;;;;;;;;;;;;9.11;91.16;99651.50;6370970;22;19918;-90
2022/06/01 20:06:36;;;;;;;;;;;;;;;9.15;91.05;99653.97;6370316;22;19910;-89
2022/06/01 20:09:02;;;;;;;;;;;;;;;9.16;90.72;99658.34;6342416;22;19910;-90
2022/06/01 20:14:11;;;;;;;;;;;;;;;9.17;90.37;99660.06;6370321;22;20443;-89
2022/06/01 20:16:37;;;;;;;;;;;;;;;9.08;90.01;99663.94;6342149;22;19941;-89
2022/06/01 20:19:04;;;;;;;;;;;;;;;9.05;90.02;99671.97;6371060;22;19967;-88
2022/06/01 20:21:29;;;;;;;;;;;;;;;9.14;90.26;99672.53;6342239;22;19917;-87
2022/06/01 20:23:54;;;;;;;;;;;;;;;9.04;89.82;99682.59;6370049;22;19914;-87
2022/06/01 20:26:20;;;;;;;;;;;;;;;9.03;89.93;99679.13;6368609;22;19934;-87
2022/06/01 20:28:47;;;;;;;;;;;;;;;9.13;89.90;99684.91;6370222;22;19914;-87
2022/06/01 20:31:13;;;;;;;;;;;;;;;9.03;89.66;99694.09;6370441;22;19912;-88
2022/06/01 20:33:38;;;;;;;;;;;;;;;9.04;89.78;99701.09;6370150;22;19949;-86
2022/06/01 20:36:17;;;;;;;;;;;;;;;9.09;89.70;99696.50;6342234;22;19914;-89
2022/06/01 20:38:42;;;;;;;;;;;;;;;8.99;89.43;99701.28;6342366;22;19910;-87
2022/06/01 20:41:08;;;;;;;;;;;;;;;9.04;89.74;99701.09;6340247;22;20000;-88
2022/06/01 20:43:33;;;;;;;;;;;;;;;9.04;89.40;99698.47;6370308;22;20280;-88
2022/06/01 20:45:59;;;;;;;;;;;;;;;8.96;89.42;99696.09;6342256;22;19914;-87
2022/06/01 20:48:24;;;;;;;;;;;;;;;9.01;89.42;99696.78;6342074;22;19914;-88
2022/06/01 20:50:52;;;;;;;;;;;;;;;9.04;89.31;99701.09;6369735;22;19936;-87
2022/06/01 20:53:17;;;;;;;;;;;;;;;8.93;89.20;99705.94;6341757;22;20399;-88
2022/06/01 20:55:43;;;;;;;;;;;;;;;8.95;89.30;99709.38;6340123;22;19911;-86
2022/06/01 20:58:08;;;;;;;;;;;;;;;8.99;89.20;99701.28;6342424;22;20256;-88
2022/06/01 21:00:33;;;;;;;;;;;;;;;8.90;89.04;99705.16;6342432;22;19911;-88
2022/06/01 21:02:59;;;;;;;;;;;;;;;8.92;89.12;99715.66;6341818;22;19910;-86
2022/06/01 21:05:25;;;;;;;;;;;;;;;8.96;88.90;99713.75;6369792;22;19911;-88
2022/06/01 21:07:50;;;;;;;;;;;;;;;8.86;88.78;99714.09;6341845;22;19960;-87
2022/06/01 21:10:18;;;;;;;;;;;;;;;8.87;88.80;99710.53;6368085;22;19916;-87
2022/06/01 21:12:46;;;;;;;;;;;;;;;8.94;88.94;99715.59;6341890;22;20211;-87
2022/06/01 21:15:12;;;;;;;;;;;;;;;8.83;88.59;99708.91;6369701;22;19914;-86
2022/06/01 21:17:37;;;;;;;;;;;;;;;8.86;88.95;99715.88;6341689;22;19910;-87
2022/06/01 21:20:06;;;;;;;;;;;;;;;8.93;89.01;99713.88;6369330;22;20378;-84
2022/06/01 21:22:31;;;;;;;;;;;;;;;8.84;88.62;99715.94;6370023;22;19918;-87
2022/06/01 21:24:56;;;;;;;;;;;;;;;8.84;88.73;99721.22;6340555;22;19933;-86
2022/06/01 21:27:22;;;;;;;;;;;;;;;8.90;88.83;99731.56;6342074;22;19911;-86
2022/06/01 21:29:48;;;;;;;;;;;;;;;8.83;88.45;99727.41;6369543;22;19914;-87
2022/06/01 21:32:14;;;;;;;;;;;;;;;8.81;88.78;99728.41;6369500;22;19956;-86
2022/06/01 21:34:39;;;;;;;;;;;;;;;8.87;88.71;99733.44;6369525;22;19945;-85